createdAt,value
2017-08-03T00:00:54.028Z,18.90
2017-08-03T00:03:23.323Z,18.84
2017-08-03T00:05:52.297Z,18.83
2017-08-03T00:08:23.008Z,18.86
2017-08-03T00:10:51.621Z,18.86
2017-08-03T00:13:19.324Z,18.86
2017-08-03T00:15:47.559Z,18.85
2017-08-03T00:18:15.522Z,18.82
2017-08-03T00:20:44.015Z,18.78
2017-08-03T00:23:11.909Z,18.73
2017-08-03T00:25:41.997Z,18.67
2017-08-03T00:28:10.480Z,18.65
2017-08-03T00:30:38.590Z,18.63
2017-08-03T00:35:40.482Z,18.60
2017-08-03T00:38:09.064Z,18.59
2017-08-03T00:40:37.983Z,18.57
2017-08-03T00:43:05.785Z,18.57
2017-08-03T00:45:34.265Z,18.57
2017-08-03T00:48:01.956Z,18.59
2017-08-03T00:50:31.154Z,18.58
2017-08-03T00:52:58.925Z,18.59
2017-08-03T00:55:33.757Z,18.59
2017-08-03T00:58:02.575Z,18.55
2017-08-03T01:00:31.683Z,18.51
2017-08-03T01:02:59.662Z,18.48
2017-08-03T01:08:00.781Z,18.40
2017-08-03T01:10:28.449Z,18.36
2017-08-03T01:12:56.091Z,18.30
2017-08-03T01:15:25.312Z,18.25
2017-08-03T01:17:54.127Z,18.22
2017-08-03T01:20:21.841Z,18.21
2017-08-03T01:22:50.530Z,18.21
2017-08-03T01:25:19.487Z,18.20
2017-08-03T01:27:47.177Z,18.18
2017-08-03T01:30:15.195Z,18.16
2017-08-03T01:32:44.167Z,18.13
2017-08-03T01:35:11.938Z,18.09
2017-08-03T01:37:40.784Z,18.04
2017-08-03T01:40:08.758Z,18.00
2017-08-03T01:42:39.286Z,17.93
2017-08-03T01:45:07.732Z,17.87
2017-08-03T01:47:36.747Z,17.85
2017-08-03T01:50:04.403Z,17.85
2017-08-03T01:52:32.466Z,17.83
2017-08-03T01:55:01.490Z,17.81
2017-08-03T01:57:30.278Z,17.81
2017-08-03T01:59:58.653Z,17.81
2017-08-03T02:02:29.868Z,17.84
2017-08-03T02:04:57.574Z,17.87
2017-08-03T02:07:25.642Z,17.89
2017-08-03T02:09:53.696Z,17.90
2017-08-03T02:12:21.365Z,17.88
2017-08-03T02:14:52.081Z,17.88
2017-08-03T02:17:19.844Z,17.86
2017-08-03T02:19:51.048Z,17.87
2017-08-03T02:22:19.097Z,17.87
2017-08-03T02:24:48.767Z,17.87
2017-08-03T02:27:17.429Z,17.87
2017-08-03T02:29:45.798Z,17.88
2017-08-03T02:32:14.985Z,17.87
2017-08-03T02:34:42.674Z,17.82
2017-08-03T02:37:11.097Z,17.76
2017-08-03T02:39:38.805Z,17.71
2017-08-03T02:42:07.139Z,17.67
2017-08-03T02:44:34.823Z,17.67
2017-08-03T02:47:02.528Z,17.66
2017-08-03T02:49:30.597Z,17.64
2017-08-03T02:51:59.342Z,17.64
2017-08-03T02:54:27.395Z,17.65
2017-08-03T02:56:55.719Z,17.67
2017-08-03T02:59:24.275Z,17.68
2017-08-03T03:01:52.721Z,17.68
2017-08-03T03:04:21.905Z,17.68
2017-08-03T03:06:50.229Z,17.68
2017-08-03T03:09:18.566Z,17.68
2017-08-03T03:11:52.144Z,17.68
2017-08-03T03:14:19.927Z,17.65
2017-08-03T03:16:47.592Z,17.62
2017-08-03T03:19:16.036Z,17.64
2017-08-03T03:21:44.991Z,17.65
2017-08-03T03:24:13.874Z,17.66
2017-08-03T03:26:42.922Z,17.66
2017-08-03T03:29:10.994Z,17.65
2017-08-03T03:31:38.656Z,17.65
2017-08-03T03:34:06.307Z,17.62
2017-08-03T03:36:35.687Z,17.65
2017-08-03T03:39:05.697Z,17.66
2017-08-03T03:41:33.929Z,17.66
2017-08-03T03:44:01.647Z,17.61
2017-08-03T03:46:29.292Z,17.58
2017-08-03T03:48:58.718Z,17.59
2017-08-03T03:51:26.434Z,17.60
2017-08-03T03:53:54.275Z,17.60
2017-08-03T03:58:55.325Z,17.58
2017-08-03T04:01:23.435Z,17.57
2017-08-03T04:03:52.389Z,17.53
2017-08-03T04:06:20.634Z,17.51
2017-08-03T04:08:48.393Z,17.50
2017-08-03T04:11:17.203Z,17.51
2017-08-03T04:13:45.798Z,17.49
2017-08-03T04:16:14.916Z,17.49
2017-08-03T04:18:42.921Z,17.51
2017-08-03T04:21:10.612Z,17.53
2017-08-03T04:23:39.231Z,17.51
2017-08-03T04:26:08.133Z,17.50
2017-08-03T04:28:36.327Z,17.47
2017-08-03T04:31:05.752Z,17.48
2017-08-03T04:33:35.284Z,17.49
2017-08-03T04:36:05.144Z,17.49
2017-08-03T04:38:35.910Z,17.45
2017-08-03T04:41:05.134Z,17.45
2017-08-03T04:43:33.058Z,17.47
2017-08-03T04:46:00.818Z,17.48
2017-08-03T04:48:28.564Z,17.51
2017-08-03T04:50:56.378Z,17.52
2017-08-03T04:53:24.039Z,17.54
2017-08-03T04:55:52.324Z,17.54
2017-08-03T04:58:20.738Z,17.53
2017-08-03T05:00:48.838Z,17.55
2017-08-03T05:03:18.200Z,17.60
2017-08-03T05:05:46.968Z,17.67
2017-08-03T05:08:16.790Z,17.71
2017-08-03T05:10:45.068Z,17.74
2017-08-03T05:13:14.369Z,17.75
2017-08-03T05:15:43.389Z,17.72
2017-08-03T05:18:11.339Z,17.70
2017-08-03T05:20:40.195Z,17.67
2017-08-03T05:23:09.010Z,17.66
2017-08-03T05:25:36.753Z,17.70
2017-08-03T05:28:04.730Z,17.72
2017-08-03T05:30:33.144Z,17.75
2017-08-03T05:33:02.478Z,17.83
2017-08-03T05:35:31.172Z,17.88
2017-08-03T05:37:59.467Z,17.98
2017-08-03T05:40:27.298Z,18.07
2017-08-03T05:42:55.358Z,18.07
2017-08-03T05:45:24.271Z,18.04
2017-08-03T05:47:53.192Z,18.08
2017-08-03T05:50:22.462Z,18.10
2017-08-03T05:52:50.364Z,18.08
2017-08-03T05:55:20.168Z,18.09
2017-08-03T05:57:48.277Z,18.14
2017-08-03T06:00:16.945Z,18.15
2017-08-03T06:02:45.648Z,18.21
2017-08-03T06:05:14.338Z,18.26
2017-08-03T06:07:43.253Z,18.27
2017-08-03T06:10:11.361Z,18.27
2017-08-03T06:12:40.254Z,18.30
2017-08-03T06:15:08.693Z,18.33
2017-08-03T06:17:37.987Z,18.36
2017-08-03T06:20:05.988Z,18.36
2017-08-03T06:22:34.638Z,18.37
2017-08-03T06:25:02.693Z,18.37
2017-08-03T06:27:31.300Z,18.37
2017-08-03T06:29:59.761Z,18.37
2017-08-03T06:32:28.444Z,18.43
2017-08-03T06:34:58.730Z,18.44
2017-08-03T06:37:26.710Z,18.43
2017-08-03T06:39:54.897Z,18.46
2017-08-03T06:42:23.481Z,18.44
2017-08-03T06:44:51.535Z,18.42
2017-08-03T06:47:22.384Z,18.48
2017-08-03T06:49:50.345Z,18.48
2017-08-03T06:52:19.876Z,18.49
2017-08-03T06:54:48.545Z,18.50
2017-08-03T06:57:17.755Z,18.50
2017-08-03T06:59:45.391Z,18.52
2017-08-03T07:02:13.120Z,18.55
2017-08-03T07:04:41.552Z,18.58
2017-08-03T07:07:09.216Z,18.60
2017-08-03T07:09:37.727Z,18.62
2017-08-03T07:12:05.392Z,18.69
2017-08-03T07:14:34.139Z,18.70
2017-08-03T07:17:03.775Z,18.78
2017-08-03T07:19:32.730Z,18.88
2017-08-03T07:22:00.456Z,19.04
2017-08-03T07:24:29.121Z,19.15
2017-08-03T07:27:02.330Z,19.26
2017-08-03T07:29:32.076Z,19.37
2017-08-03T07:32:00.671Z,19.38
2017-08-03T07:34:28.552Z,19.47
2017-08-03T07:36:57.773Z,19.54
2017-08-03T07:39:26.190Z,19.56
2017-08-03T07:41:54.480Z,19.48
2017-08-03T07:44:23.190Z,19.42
2017-08-03T07:46:51.273Z,19.39
2017-08-03T07:49:19.724Z,19.37
2017-08-03T07:51:53.411Z,19.36
2017-08-03T07:54:22.577Z,19.28
2017-08-03T07:56:50.589Z,19.31
2017-08-03T07:59:19.918Z,19.29
2017-08-03T08:01:49.953Z,19.26
2017-08-03T08:04:17.764Z,19.24
2017-08-03T08:06:45.487Z,19.29
2017-08-03T08:09:14.378Z,19.34
2017-08-03T08:11:42.153Z,19.46
2017-08-03T08:14:10.846Z,19.56
2017-08-03T08:16:39.767Z,19.55
2017-08-03T08:19:07.792Z,19.60
2017-08-03T08:21:35.969Z,19.51
2017-08-03T08:24:03.983Z,19.48
2017-08-03T08:26:32.712Z,19.48
2017-08-03T08:29:00.386Z,19.47
2017-08-03T08:31:28.123Z,19.55
2017-08-03T08:33:56.452Z,19.61
2017-08-03T08:36:25.055Z,19.73
2017-08-03T08:38:59.243Z,19.90
2017-08-03T08:41:30.117Z,19.86
2017-08-03T08:43:58.154Z,19.91
2017-08-03T08:46:26.848Z,20.15
2017-08-03T08:48:54.830Z,20.49
2017-08-03T08:51:23.968Z,20.97
2017-08-03T08:53:52.168Z,21.67
2017-08-03T08:56:21.638Z,22.03
2017-08-03T08:58:49.980Z,22.13
2017-08-03T09:01:18.530Z,22.22
2017-08-03T09:03:46.610Z,22.43
2017-08-03T09:06:14.313Z,22.54
2017-08-03T09:08:42.126Z,22.57
2017-08-03T09:11:10.213Z,22.44
2017-08-03T09:13:42.005Z,22.38
2017-08-03T09:16:11.489Z,22.31
2017-08-03T09:18:43.933Z,22.09
2017-08-03T09:21:12.222Z,22.40
2017-08-03T09:23:40.291Z,22.86
2017-08-03T09:26:11.407Z,23.25
2017-08-03T09:28:40.086Z,23.51
2017-08-03T09:31:08.730Z,23.94
2017-08-03T09:33:38.777Z,24.23
2017-08-03T09:36:07.026Z,24.28
2017-08-03T09:38:34.912Z,24.04
2017-08-03T09:41:04.356Z,24.11
2017-08-03T09:43:33.049Z,24.19
2017-08-03T09:46:01.926Z,24.32
2017-08-03T09:48:30.425Z,24.11
2017-08-03T09:50:58.364Z,24.15
2017-08-03T09:53:26.016Z,24.10
2017-08-03T09:55:56.447Z,24.00
2017-08-03T09:58:25.100Z,23.94
2017-08-03T10:00:52.859Z,24.27
2017-08-03T10:03:21.247Z,24.42
2017-08-03T10:05:49.282Z,24.58
2017-08-03T10:08:17.361Z,24.71
2017-08-03T10:10:45.262Z,24.93
2017-08-03T10:13:13.114Z,25.20
2017-08-03T10:15:41.235Z,25.57
2017-08-03T10:18:10.103Z,25.90
2017-08-03T10:20:38.793Z,26.01
2017-08-03T10:23:08.710Z,26.13
2017-08-03T10:25:36.636Z,26.36
2017-08-03T10:28:04.957Z,26.63
2017-08-03T10:30:38.034Z,26.93
2017-08-03T10:33:06.103Z,26.43
2017-08-03T10:35:34.729Z,26.21
2017-08-03T10:38:03.698Z,25.72
2017-08-03T10:40:31.610Z,25.54
2017-08-03T10:43:00.200Z,25.44
2017-08-03T10:45:30.297Z,25.63
2017-08-03T10:47:59.641Z,25.91
2017-08-03T10:50:27.855Z,26.62
2017-08-03T10:52:56.325Z,26.90
2017-08-03T10:55:25.904Z,26.74
2017-08-03T10:57:54.007Z,26.60
2017-08-03T11:00:22.594Z,26.41
2017-08-03T11:02:50.267Z,26.54
2017-08-03T11:05:18.611Z,26.87
2017-08-03T11:07:46.551Z,27.28
2017-08-03T11:10:14.156Z,27.40
2017-08-03T11:12:42.175Z,27.32
2017-08-03T11:15:09.965Z,27.45
2017-08-03T11:17:38.262Z,27.46
2017-08-03T11:20:11.679Z,27.41
2017-08-03T11:22:41.564Z,27.34
2017-08-03T11:25:10.104Z,27.34
2017-08-03T11:27:37.814Z,27.30
2017-08-03T11:30:06.891Z,27.33
2017-08-03T11:32:35.228Z,27.61
2017-08-03T11:35:02.815Z,27.75
2017-08-03T11:37:31.816Z,28.13
2017-08-03T11:39:59.424Z,28.26
2017-08-03T11:42:28.283Z,28.12
2017-08-03T11:44:56.210Z,27.61
2017-08-03T11:47:28.262Z,27.29
2017-08-03T11:49:56.530Z,27.34
2017-08-03T11:52:24.217Z,27.25
2017-08-03T11:54:52.304Z,27.25
2017-08-03T11:57:20.958Z,27.22
2017-08-03T11:59:49.013Z,27.19
2017-08-03T12:02:18.000Z,27.56
2017-08-03T12:04:47.381Z,27.90
2017-08-03T12:07:15.995Z,28.05
2017-08-03T12:09:44.956Z,28.13
2017-08-03T12:12:14.529Z,28.19
2017-08-03T12:14:42.570Z,27.98
2017-08-03T12:17:10.288Z,27.98
2017-08-03T12:19:39.969Z,27.96
2017-08-03T12:22:08.135Z,27.94
2017-08-03T12:24:36.542Z,28.16
2017-08-03T12:27:04.558Z,28.30
2017-08-03T12:29:34.088Z,28.57
2017-08-03T12:32:02.500Z,28.84
2017-08-03T12:34:31.869Z,28.93
2017-08-03T12:36:59.856Z,28.84
2017-08-03T12:39:28.042Z,28.78
2017-08-03T12:41:55.947Z,28.78
2017-08-03T12:44:29.162Z,28.66
2017-08-03T12:46:58.495Z,28.73
2017-08-03T12:49:26.823Z,28.62
2017-08-03T12:51:54.927Z,28.77
2017-08-03T12:54:24.492Z,28.73
2017-08-03T12:56:54.202Z,28.45
2017-08-03T12:59:22.762Z,28.04
2017-08-03T13:01:51.557Z,27.61
2017-08-03T13:04:19.694Z,27.14
2017-08-03T13:06:48.067Z,26.86
2017-08-03T13:09:16.251Z,26.82
2017-08-03T13:11:45.420Z,27.08
2017-08-03T13:14:13.922Z,27.12
2017-08-03T13:16:42.994Z,26.87
2017-08-03T13:19:11.488Z,26.55
2017-08-03T13:21:39.528Z,26.28
2017-08-03T13:24:08.039Z,26.12
2017-08-03T13:26:36.752Z,26.08
2017-08-03T13:29:13.179Z,25.98
2017-08-03T13:31:41.078Z,25.81
2017-08-03T13:34:10.447Z,25.69
2017-08-03T13:36:39.196Z,25.69
2017-08-03T13:39:12.695Z,25.64
2017-08-03T13:41:41.139Z,25.49
2017-08-03T13:44:09.918Z,25.26
2017-08-03T13:46:37.608Z,25.08
2017-08-03T13:49:06.831Z,25.04
2017-08-03T13:51:35.125Z,25.31
2017-08-03T13:54:03.580Z,25.91
2017-08-03T13:56:36.640Z,26.62
2017-08-03T13:59:05.743Z,27.28
2017-08-03T14:01:33.707Z,27.45
2017-08-03T14:04:01.654Z,27.61
2017-08-03T14:06:30.388Z,27.48
2017-08-03T14:08:59.616Z,27.15
2017-08-03T14:11:27.274Z,26.75
2017-08-03T14:13:55.327Z,26.99
2017-08-03T14:16:24.392Z,27.25
2017-08-03T14:18:52.206Z,27.41
2017-08-03T14:21:21.212Z,27.14
2017-08-03T14:23:49.704Z,27.00
2017-08-03T14:26:18.363Z,26.87
2017-08-03T14:28:46.021Z,27.30
2017-08-03T14:31:16.057Z,27.60
2017-08-03T14:33:44.349Z,27.44
2017-08-03T14:36:13.148Z,27.04
2017-08-03T14:38:42.285Z,27.06
2017-08-03T14:41:11.028Z,26.72
2017-08-03T14:43:38.609Z,26.77
2017-08-03T14:46:06.207Z,26.73
2017-08-03T14:48:33.827Z,26.68
2017-08-03T14:51:01.767Z,26.61
2017-08-03T14:53:30.971Z,26.60
2017-08-03T14:55:59.064Z,26.52
2017-08-03T14:58:27.076Z,26.66
2017-08-03T15:00:55.508Z,26.65
2017-08-03T15:03:24.016Z,26.59
2017-08-03T15:05:53.590Z,26.58
2017-08-03T15:08:22.892Z,26.54
2017-08-03T15:10:50.567Z,26.71
2017-08-03T15:13:19.955Z,27.14
2017-08-03T15:15:49.354Z,27.45
2017-08-03T15:18:18.935Z,27.41
2017-08-03T15:20:46.730Z,27.16
2017-08-03T15:23:15.060Z,26.86
2017-08-03T15:25:43.514Z,26.94
2017-08-03T15:28:12.841Z,26.67
2017-08-03T15:30:43.310Z,26.40
2017-08-03T15:33:11.038Z,26.29
2017-08-03T15:35:40.966Z,25.89
2017-08-03T15:38:08.917Z,25.58
2017-08-03T15:40:40.491Z,25.51
2017-08-03T15:43:08.506Z,25.84
2017-08-03T15:45:36.673Z,26.18
2017-08-03T15:48:05.549Z,26.54
2017-08-03T15:50:36.326Z,26.63
2017-08-03T15:53:04.929Z,26.16
2017-08-03T15:55:38.624Z,25.64
2017-08-03T15:58:11.787Z,25.64
2017-08-03T16:00:40.763Z,25.64
2017-08-03T16:03:08.542Z,25.33
2017-08-03T16:05:36.220Z,25.22
2017-08-03T16:08:04.365Z,25.09
2017-08-03T16:10:36.775Z,25.02
2017-08-03T16:13:04.563Z,24.80
2017-08-03T16:15:33.375Z,24.52
2017-08-03T16:18:03.493Z,24.26
2017-08-03T16:20:32.886Z,24.43
2017-08-03T16:23:01.287Z,24.40
2017-08-03T16:25:30.312Z,24.32
2017-08-03T16:27:59.101Z,24.24
2017-08-03T16:30:26.935Z,24.10
2017-08-03T16:32:54.629Z,23.88
2017-08-03T16:35:23.941Z,23.91
2017-08-03T16:37:52.767Z,23.77
2017-08-03T16:40:21.445Z,23.73
2017-08-03T16:42:50.103Z,23.50
2017-08-03T16:45:18.923Z,23.16
2017-08-03T16:47:48.037Z,23.28
2017-08-03T16:50:15.796Z,23.54
2017-08-03T16:52:43.849Z,23.70
2017-08-03T16:55:12.574Z,23.76
2017-08-03T16:57:41.475Z,23.71
2017-08-03T17:00:10.044Z,23.75
2017-08-03T17:02:37.873Z,23.70
2017-08-03T17:05:06.029Z,23.61
2017-08-03T17:07:33.758Z,23.59
2017-08-03T17:10:03.296Z,23.68
2017-08-03T17:12:33.272Z,23.71
2017-08-03T17:17:35.438Z,23.62
2017-08-03T17:20:04.318Z,23.55
2017-08-03T17:22:32.286Z,23.54
2017-08-03T17:25:05.233Z,23.51
2017-08-03T17:27:34.608Z,23.53
2017-08-03T17:30:03.048Z,23.48
2017-08-03T17:32:31.140Z,23.53
2017-08-03T17:34:58.868Z,23.60
2017-08-03T17:37:26.626Z,23.60
2017-08-03T17:39:55.275Z,23.61
2017-08-03T17:42:23.165Z,23.59
2017-08-03T17:44:52.685Z,23.48
2017-08-03T17:47:21.788Z,23.35
2017-08-03T17:49:49.980Z,23.28
2017-08-03T17:52:18.217Z,23.30
2017-08-03T17:54:46.635Z,23.35
2017-08-03T17:57:14.944Z,23.34
2017-08-03T17:59:42.660Z,23.63
2017-08-03T18:02:11.350Z,24.21
2017-08-03T18:04:38.982Z,24.75
2017-08-03T18:07:07.465Z,25.12
2017-08-03T18:09:35.721Z,25.27
2017-08-03T18:12:04.271Z,25.27
2017-08-03T18:14:33.001Z,24.70
2017-08-03T18:17:00.885Z,24.15
2017-08-03T18:19:31.617Z,23.99
2017-08-03T18:22:00.990Z,23.87
2017-08-03T18:24:29.211Z,23.50
2017-08-03T18:26:56.912Z,23.34
2017-08-03T18:29:25.706Z,23.45
2017-08-03T18:31:54.833Z,23.51
2017-08-03T18:34:23.273Z,23.21
2017-08-03T18:36:51.353Z,22.85
2017-08-03T18:39:20.318Z,22.66
2017-08-03T18:41:48.362Z,22.41
2017-08-03T18:44:16.388Z,22.06
2017-08-03T18:46:44.152Z,21.75
2017-08-03T18:49:11.794Z,21.51
2017-08-03T18:51:39.422Z,21.35
2017-08-03T18:54:07.456Z,21.28
2017-08-03T18:56:40.428Z,21.17
2017-08-03T18:59:08.107Z,21.05
2017-08-03T19:01:37.524Z,20.96
2017-08-03T19:04:06.504Z,20.82
2017-08-03T19:06:34.424Z,20.76
2017-08-03T19:09:03.948Z,20.63
2017-08-03T19:11:31.679Z,20.53
2017-08-03T19:13:59.786Z,20.43
2017-08-03T19:16:28.684Z,20.34
2017-08-03T19:18:57.785Z,20.22
2017-08-03T19:21:25.965Z,20.12
2017-08-03T19:23:54.691Z,20.01
2017-08-03T19:26:22.933Z,19.95
2017-08-03T19:28:51.609Z,19.92
2017-08-03T19:31:19.615Z,19.85
2017-08-03T19:33:47.249Z,19.76
2017-08-03T19:36:16.865Z,19.68
2017-08-03T19:38:48.333Z,19.63
2017-08-03T19:41:17.308Z,19.56
2017-08-03T19:43:48.451Z,19.46
2017-08-03T19:46:16.358Z,19.37
2017-08-03T19:48:45.381Z,19.28
2017-08-03T19:51:13.235Z,19.23
2017-08-03T19:53:41.906Z,19.17
2017-08-03T19:56:10.201Z,19.15
2017-08-03T19:58:38.316Z,19.13
2017-08-03T20:01:07.216Z,19.17
2017-08-03T20:03:38.504Z,19.24
2017-08-03T20:06:06.593Z,19.27
2017-08-03T20:08:36.285Z,19.25
2017-08-03T20:11:03.897Z,19.26
2017-08-03T20:13:31.541Z,19.27
2017-08-03T20:15:59.405Z,19.26
2017-08-03T20:18:29.524Z,19.18
2017-08-03T20:20:57.717Z,19.10
2017-08-03T20:23:26.139Z,19.02
2017-08-03T20:25:54.087Z,18.96
2017-08-03T20:28:22.170Z,18.89
2017-08-03T20:30:49.883Z,18.81
2017-08-03T20:33:17.609Z,18.74
2017-08-03T20:35:45.290Z,18.68
2017-08-03T20:38:14.310Z,18.63
2017-08-03T20:40:42.760Z,18.60
2017-08-03T20:43:11.734Z,18.54
2017-08-03T20:45:40.665Z,18.54
2017-08-03T20:48:09.140Z,18.53
2017-08-03T20:50:37.460Z,18.52
2017-08-03T20:53:05.202Z,18.50
2017-08-03T20:55:32.944Z,18.48
2017-08-03T20:58:00.715Z,18.45
2017-08-03T21:00:28.659Z,18.42
2017-08-03T21:02:56.729Z,18.37
2017-08-03T21:05:25.605Z,18.35
2017-08-03T21:07:54.055Z,18.32
2017-08-03T21:10:21.723Z,18.34
2017-08-03T21:12:54.284Z,18.33
2017-08-03T21:15:27.085Z,18.29
2017-08-03T21:17:57.080Z,18.26
2017-08-03T21:20:29.689Z,18.26
2017-08-03T21:22:57.688Z,18.23
2017-08-03T21:25:28.191Z,18.21
2017-08-03T21:27:56.249Z,18.25
2017-08-03T21:30:24.427Z,18.28
2017-08-03T21:32:52.704Z,18.31
2017-08-03T21:35:21.030Z,18.32
2017-08-03T21:37:50.037Z,18.35
2017-08-03T21:40:17.813Z,18.36
2017-08-03T21:42:46.290Z,18.34
2017-08-03T21:45:14.015Z,18.27
2017-08-03T21:47:43.122Z,18.23
2017-08-03T21:50:12.197Z,18.20
2017-08-03T21:52:40.279Z,18.17
2017-08-03T21:55:10.066Z,18.13
2017-08-03T21:57:44.150Z,18.09
2017-08-03T22:00:12.495Z,18.10
2017-08-03T22:02:40.278Z,18.10
2017-08-03T22:05:08.402Z,18.11
2017-08-03T22:07:38.184Z,18.09
2017-08-03T22:10:06.996Z,18.03
2017-08-03T22:12:35.352Z,17.96
2017-08-03T22:15:03.090Z,17.90
2017-08-03T22:17:31.035Z,17.85
2017-08-03T22:19:59.406Z,17.80
2017-08-03T22:22:27.478Z,17.71
2017-08-03T22:24:56.501Z,17.64
2017-08-03T22:27:25.242Z,17.59
2017-08-03T22:29:52.914Z,17.55
2017-08-03T22:32:22.897Z,17.51
2017-08-03T22:34:50.929Z,17.46
2017-08-03T22:37:18.651Z,17.41
2017-08-03T22:39:46.833Z,17.31
2017-08-03T22:42:15.306Z,17.23
2017-08-03T22:44:44.372Z,17.18
2017-08-03T22:47:13.123Z,17.18
2017-08-03T22:49:40.848Z,17.12
2017-08-03T22:52:09.030Z,17.05
2017-08-03T22:54:37.238Z,16.99
2017-08-03T22:57:05.021Z,16.91
2017-08-03T22:59:33.068Z,16.83
2017-08-03T23:02:02.223Z,16.79
2017-08-03T23:04:31.691Z,16.77
2017-08-03T23:07:00.562Z,16.78
2017-08-03T23:09:28.642Z,16.78
2017-08-03T23:11:58.076Z,16.73
2017-08-03T23:14:25.748Z,16.68
2017-08-03T23:16:53.960Z,16.59
2017-08-03T23:19:22.783Z,16.51
2017-08-03T23:21:52.117Z,16.48
2017-08-03T23:24:19.768Z,16.41
2017-08-03T23:26:48.206Z,16.38
2017-08-03T23:29:17.583Z,16.36
2017-08-03T23:31:47.406Z,16.34
2017-08-03T23:34:15.419Z,16.33
2017-08-03T23:36:44.084Z,16.35
2017-08-03T23:39:12.080Z,16.30
2017-08-03T23:41:40.838Z,16.31
2017-08-03T23:44:10.063Z,16.30
2017-08-03T23:46:38.874Z,16.36
2017-08-03T23:49:08.226Z,16.48
2017-08-03T23:51:35.919Z,16.59
2017-08-03T23:54:05.467Z,16.67
2017-08-03T23:56:34.311Z,16.74
2017-08-03T23:59:02.995Z,16.77
